Orlando, Arkansas
Current Conditions -  °F | °C
As of 8:53 PM on Tuesday 25 Nov 2014 (Local Time) from KLLQ Reporting Station
Clear Clear  
Wind Chill: 30°   Ceiling: Unl
Heat Index: 34°   Visibility: 10mi
Dew Point: 30°   Wind: 5mph
Humidity: 85%   Direction: 60°ENE
Pressure: 30.21"   Gusts: NA
Location:  33.7656°N, 92.1916°W
Report Text: KLLQ 260253Z AUTO 06004KT 10SM CLR 01/M01 A3021 RMK AO2 SLP230 T00111011 51003
Loading
Personal Weather Stations






























Interactive Weather Map New forecast layout! Learn more

10-Day Weather Forecast

Advertisements
Track Severe Weather on mobile